createdAt,value
2016-04-17T00:00:12.052Z,24.09
2016-04-17T00:01:12.054Z,24.09
2016-04-17T00:02:12.057Z,24.13
2016-04-17T00:03:12.076Z,24.13
2016-04-17T00:04:12.079Z,24.08
2016-04-17T00:05:12.082Z,24.1
2016-04-17T00:06:12.099Z,24.08
2016-04-17T00:07:12.087Z,24.15
2016-04-17T00:08:12.104Z,24.13
2016-04-17T00:09:12.108Z,24.12
2016-04-17T00:10:12.110Z,24.18
2016-04-17T00:11:12.113Z,24.22
2016-04-17T00:12:12.148Z,24.15
2016-04-17T00:13:12.134Z,24.21
2016-04-17T00:14:12.136Z,24.15
2016-04-17T00:15:12.155Z,24.18
2016-04-17T00:16:12.173Z,24.12
2016-04-17T00:17:12.161Z,24.13
2016-04-17T00:18:12.006Z,24.1
2016-04-17T00:19:12.181Z,24.1
2016-04-17T00:20:12.183Z,24.09
2016-04-17T00:21:12.203Z,24.15
2016-04-17T00:22:12.189Z,24.15
2016-04-17T00:23:12.052Z,24.06
2016-04-17T00:24:12.211Z,24.15
2016-04-17T00:25:12.213Z,24.18
2016-04-17T00:26:12.216Z,24.08
2016-04-17T00:27:12.218Z,24.08
2016-04-17T00:28:12.221Z,24.2
2016-04-17T00:29:12.238Z,24.09
2016-04-17T00:30:12.241Z,24.13
2016-04-17T00:31:26.369Z,24.12
2016-04-17T00:32:12.263Z,24.18
2016-04-17T00:33:12.249Z,24.03
2016-04-17T00:34:12.268Z,24.2
2016-04-17T00:35:12.271Z,24.12
2016-04-17T00:36:12.274Z,24.1
2016-04-17T00:37:12.277Z,24.16
2016-04-17T00:38:12.279Z,24.1
2016-04-17T00:39:12.298Z,24.1
2016-04-17T00:40:12.300Z,24.2
2016-04-17T00:41:12.318Z,24.15
2016-04-17T00:42:12.321Z,24.13
2016-04-17T00:43:12.324Z,24.16
2016-04-17T00:44:12.326Z,24.13
2016-04-17T00:45:12.329Z,24.22
2016-04-17T00:46:12.331Z,24.15
2016-04-17T00:47:12.350Z,24.1
2016-04-17T00:48:12.369Z,24.13
2016-04-17T00:49:12.356Z,24.18
2016-04-17T00:50:12.359Z,24.16
2016-04-17T00:51:12.361Z,24.16
2016-04-17T00:52:12.364Z,24.15
2016-04-17T00:53:12.398Z,24.13
2016-04-17T00:54:12.386Z,24.1
2016-04-17T00:55:12.388Z,24.16
2016-04-17T00:56:12.391Z,24.2
2016-04-17T00:57:12.424Z,24.2
2016-04-17T00:58:12.427Z,24.13
2016-04-17T00:59:12.413Z,24.2
2016-04-17T01:00:12.433Z,24.16
2016-04-17T01:01:12.435Z,24.13
2016-04-17T01:02:12.438Z,24.18
2016-04-17T01:03:12.440Z,24.13
2016-04-17T01:04:12.443Z,24.21
2016-04-17T01:05:12.477Z,24.16
2016-04-17T01:06:12.464Z,24.18
2016-04-17T01:07:12.466Z,24.21
2016-04-17T01:08:12.469Z,24.21
2016-04-17T01:09:12.471Z,24.18
2016-04-17T01:10:12.490Z,24.15
2016-04-17T01:11:12.493Z,24.2
2016-04-17T01:12:12.496Z,24.21
2016-04-17T01:13:12.499Z,24.2
2016-04-17T01:14:12.517Z,24.2
2016-04-17T01:15:12.519Z,24.12
2016-04-17T01:16:12.522Z,24.24
2016-04-17T01:17:12.525Z,24.2
2016-04-17T01:18:12.543Z,24.21
2016-04-17T01:19:12.562Z,24.22
2016-04-17T01:20:12.564Z,24.12
2016-04-17T01:21:12.551Z,24.21
2016-04-17T01:22:12.413Z,24.13
2016-04-17T01:23:12.556Z,24.16
2016-04-17T01:24:12.575Z,24.1
2016-04-17T01:25:12.594Z,24.12
2016-04-17T01:26:12.580Z,24.18
2016-04-17T01:27:12.599Z,24.16
2016-04-17T01:28:12.601Z,24.1
2016-04-17T01:29:12.604Z,24.13
2016-04-17T01:30:12.607Z,24.1
2016-04-17T01:31:12.625Z,24.18
2016-04-17T01:32:12.643Z,24.16
2016-04-17T01:33:12.630Z,24.12
2016-04-17T01:34:12.663Z,24.13
2016-04-17T01:35:12.636Z,24.18
2016-04-17T01:36:12.654Z,24.16
2016-04-17T01:37:12.657Z,24.2
2016-04-17T01:38:12.659Z,24.09
2016-04-17T01:39:12.662Z,24.2
2016-04-17T01:40:12.664Z,24.06
2016-04-17T01:41:12.715Z,24.16
2016-04-17T01:42:12.685Z,24.13
2016-04-17T01:43:12.720Z,24.18
2016-04-17T01:44:12.706Z,24.15
2016-04-17T01:45:12.709Z,24.09
2016-04-17T01:46:12.712Z,24.16
2016-04-17T01:47:12.715Z,24.12
2016-04-17T01:48:12.717Z,24.21
2016-04-17T01:49:12.736Z,24.12
2016-04-17T01:50:12.738Z,24.18
2016-04-17T01:51:12.756Z,24.18
2016-04-17T01:52:12.744Z,24.13
2016-04-17T01:53:12.762Z,24.13
2016-04-17T01:54:12.765Z,24.15
2016-04-17T01:55:12.767Z,24.13
2016-04-17T01:56:12.770Z,24.06
2016-04-17T01:57:12.772Z,24.15
2016-04-17T01:58:12.791Z,24.13
2016-04-17T01:59:12.794Z,24.13
2016-04-17T02:00:12.797Z,24.1
2016-04-17T02:01:12.799Z,24.24
2016-04-17T02:02:12.818Z,24.16
2016-04-17T02:03:12.820Z,24.12
2016-04-17T02:04:12.824Z,24.18
2016-04-17T02:05:12.841Z,24.1
2016-04-17T02:06:12.829Z,24.18
2016-04-17T02:07:12.846Z,24.12
2016-04-17T02:08:12.849Z,24.21
2016-04-17T02:09:12.868Z,24.16
2016-04-17T02:10:12.871Z,24.18
2016-04-17T02:11:12.857Z,24.16
2016-04-17T02:12:12.876Z,24.13
2016-04-17T02:13:12.893Z,24.1
2016-04-17T02:14:12.881Z,24.22
2016-04-17T02:15:12.898Z,24.18
2016-04-17T02:16:12.902Z,24.21
2016-04-17T02:17:12.904Z,24.16
2016-04-17T02:18:12.923Z,24.21
2016-04-17T02:19:12.925Z,24.13
2016-04-17T02:20:12.928Z,24.12
2016-04-17T02:21:12.931Z,24.16
2016-04-17T02:22:12.939Z,24.15
2016-04-17T02:23:12.941Z,24.18
2016-04-17T02:24:12.944Z,24.1
2016-04-17T02:25:13.041Z,24.16
2016-04-17T02:26:12.965Z,24.1
2016-04-17T02:27:12.968Z,24.21
2016-04-17T02:28:12.971Z,24.18
2016-04-17T02:29:12.988Z,24.16
2016-04-17T02:30:12.991Z,24.15
2016-04-17T02:31:12.994Z,24.13
2016-04-17T02:32:12.997Z,24.24
2016-04-17T02:33:13.000Z,24.13
2016-04-17T02:34:13.002Z,24.09
2016-04-17T02:35:13.021Z,24.21
2016-04-17T02:36:13.023Z,24.15
2016-04-17T02:37:13.026Z,24.09
2016-04-17T02:38:13.044Z,24.13
2016-04-17T02:39:13.047Z,24.13
2016-04-17T02:40:13.049Z,24.13
2016-04-17T02:41:13.052Z,24.12
2016-04-17T02:42:13.054Z,24.13
2016-04-17T02:43:13.073Z,24.13
2016-04-17T02:44:13.076Z,24.06
2016-04-17T02:45:13.079Z,24.12
2016-04-17T02:46:13.081Z,24.13
2016-04-17T02:47:13.084Z,24.05
2016-04-17T02:48:13.086Z,24.16
2016-04-17T02:49:13.106Z,24.18
2016-04-17T02:50:13.108Z,24.12
2016-04-17T02:51:13.126Z,24.15
2016-04-17T02:52:13.113Z,24.15
2016-04-17T02:53:13.116Z,24.21
2016-04-17T02:54:13.133Z,24.22
2016-04-17T02:55:13.215Z,24.16
2016-04-17T02:56:13.139Z,24.21
2016-04-17T02:57:13.158Z,24.21
2016-04-17T02:58:13.160Z,24.13
2016-04-17T02:59:13.179Z,24.2
2016-04-17T03:00:13.166Z,24.15
2016-04-17T03:01:15.824Z,24.13
2016-04-17T03:02:13.202Z,24.16
2016-04-17T03:03:13.190Z,24.13
2016-04-17T03:04:13.193Z,24.2
2016-04-17T03:05:13.195Z,24.22
2016-04-17T03:06:13.213Z,24.18
2016-04-17T03:07:13.216Z,24.09
2016-04-17T03:08:13.218Z,24.21
2016-04-17T03:09:13.221Z,24.21
2016-04-17T03:10:13.271Z,24.16
2016-04-17T03:11:13.242Z,24.15
2016-04-17T03:12:13.245Z,24.24
2016-04-17T03:13:13.279Z,24.21
2016-04-17T03:14:13.282Z,24.12
2016-04-17T03:15:13.268Z,24.15
2016-04-17T03:16:13.287Z,24.15
2016-04-17T03:17:13.273Z,24.21
2016-04-17T03:18:13.292Z,24.2
2016-04-17T03:19:13.295Z,24.22
2016-04-17T03:20:13.313Z,24.18
2016-04-17T03:21:13.300Z,24.2
2016-04-17T03:22:13.303Z,24.24
2016-04-17T03:23:13.306Z,24.22
2016-04-17T03:24:13.325Z,24.2
2016-04-17T03:25:13.358Z,24.24
2016-04-17T03:26:13.361Z,24.25
2016-04-17T03:27:13.347Z,24.22
2016-04-17T03:28:13.335Z,24.25
2016-04-17T03:29:13.352Z,24.18
2016-04-17T03:30:13.372Z,24.16
2016-04-17T03:31:13.202Z,24.22
2016-04-17T03:32:13.377Z,24.16
2016-04-17T03:33:13.395Z,24.16
2016-04-17T03:34:13.382Z,24.18
2016-04-17T03:35:13.384Z,24.16
2016-04-17T03:36:13.388Z,24.16
2016-04-17T03:37:13.390Z,24.15
2016-04-17T03:38:13.455Z,24.16
2016-04-17T03:39:13.411Z,24.15
2016-04-17T03:40:13.476Z,24.22
2016-04-17T03:41:13.417Z,24.21
2016-04-17T03:42:13.435Z,24.16
2016-04-17T03:43:13.453Z,24.13
2016-04-17T03:44:13.440Z,24.1
2016-04-17T03:45:13.443Z,24.09
2016-04-17T03:46:13.461Z,24.16
2016-04-17T03:47:13.464Z,24.06
2016-04-17T03:48:13.467Z,24.13
2016-04-17T03:49:13.485Z,24.1
2016-04-17T03:50:13.488Z,24.2
2016-04-17T03:51:13.490Z,24.13
2016-04-17T03:52:13.492Z,24.15
2016-04-17T03:53:13.496Z,24.12
2016-04-17T03:54:13.498Z,24.13
2016-04-17T03:55:13.580Z,24.08
2016-04-17T03:56:13.519Z,24.13
2016-04-17T03:57:13.522Z,24.18
2016-04-17T03:58:13.525Z,24.15
2016-04-17T03:59:13.543Z,24.15
2016-04-17T04:00:13.546Z,24.09
2016-04-17T04:01:13.549Z,24.16
2016-04-17T04:02:13.552Z,24.12
2016-04-17T04:03:13.569Z,24.03
2016-04-17T04:04:13.572Z,24.03
2016-04-17T04:05:13.575Z,24.06
2016-04-17T04:06:13.594Z,24.06
2016-04-17T04:07:13.580Z,24.08
2016-04-17T04:08:13.599Z,24.09
2016-04-17T04:09:13.601Z,24.05
2016-04-17T04:10:13.635Z,24.1
2016-04-17T04:11:13.622Z,24.08
2016-04-17T04:12:13.626Z,24.05
2016-04-17T04:13:13.628Z,24.13
2016-04-17T04:14:13.631Z,23.97
2016-04-17T04:15:13.633Z,24.12
2016-04-17T04:16:13.637Z,24.08
2016-04-17T04:17:13.639Z,24.08
2016-04-17T04:18:13.657Z,23.98
2016-04-17T04:19:13.503Z,24.12
2016-04-17T04:20:13.662Z,24.12
2016-04-17T04:21:13.680Z,24.06
2016-04-17T04:22:13.511Z,24.08
2016-04-17T04:23:13.686Z,24.13
2016-04-17T04:24:13.704Z,24.16
2016-04-17T04:25:13.566Z,24.13
2016-04-17T04:26:13.709Z,24.15
2016-04-17T04:27:13.711Z,24.08
2016-04-17T04:28:13.714Z,24.13
2016-04-17T04:29:13.717Z,24.16
2016-04-17T04:30:13.705Z,24.12
2016-04-17T04:31:27.848Z,24.09
2016-04-17T04:32:13.741Z,24.09
2016-04-17T04:33:13.744Z,24.16
2016-04-17T04:34:13.747Z,24.12
2016-04-17T04:35:13.813Z,24.15
2016-04-17T04:36:13.768Z,24.06
2016-04-17T04:37:13.818Z,24.09
2016-04-17T04:38:13.773Z,24.15
2016-04-17T04:39:13.635Z,24.16
2016-04-17T04:40:13.888Z,24.05
2016-04-17T04:41:13.812Z,24.08
2016-04-17T04:42:13.799Z,24.12
2016-04-17T04:43:13.802Z,24.12
2016-04-17T04:44:13.836Z,24.16
2016-04-17T04:45:13.823Z,24.13
2016-04-17T04:46:13.825Z,24.12
2016-04-17T04:47:13.845Z,24.2
2016-04-17T04:48:13.847Z,24.16
2016-04-17T04:49:13.709Z,24.16
2016-04-17T04:50:13.852Z,24.2
2016-04-17T04:51:13.870Z,24.24
2016-04-17T04:52:13.858Z,24.22
2016-04-17T04:53:13.861Z,24.2
2016-04-17T04:54:13.878Z,24.18
2016-04-17T04:55:13.897Z,24.22
2016-04-17T04:56:13.883Z,24.2
2016-04-17T04:57:13.902Z,24.24
2016-04-17T04:58:13.905Z,24.24
2016-04-17T04:59:13.922Z,24.2
2016-04-17T05:00:13.926Z,24.16
2016-04-17T05:01:28.038Z,24.15
2016-04-17T05:02:13.931Z,24.21
2016-04-17T05:03:13.933Z,24.2
2016-04-17T05:04:13.921Z,24.18
2016-04-17T05:05:13.955Z,24.21
2016-04-17T05:06:13.958Z,24.28
2016-04-17T05:07:13.788Z,24.21
2016-04-17T05:08:13.963Z,24.16
2016-04-17T05:09:13.965Z,24.25
2016-04-17T05:10:13.969Z,24.24
2016-04-17T05:11:13.971Z,24.27
2016-04-17T05:12:13.990Z,24.21
2016-04-17T05:13:13.835Z,24.21
2016-04-17T05:14:13.995Z,24.2
2016-04-17T05:15:14.012Z,24.24
2016-04-17T05:16:14.016Z,24.27
2016-04-17T05:17:14.003Z,24.25
2016-04-17T05:18:14.037Z,24.2
2016-04-17T05:19:14.023Z,24.24
2016-04-17T05:20:14.042Z,24.22
2016-04-17T05:21:14.044Z,24.21
2016-04-17T05:22:14.064Z,24.24
2016-04-17T05:23:14.066Z,24.22
2016-04-17T05:24:14.053Z,24.24
2016-04-17T05:25:14.071Z,24.22
2016-04-17T05:26:14.074Z,24.24
2016-04-17T05:27:14.092Z,24.22
2016-04-17T05:28:14.080Z,24.24
2016-04-17T05:29:14.082Z,24.21
2016-04-17T05:30:13.944Z,24.22
2016-04-17T05:31:14.119Z,24.27
2016-04-17T05:32:14.105Z,24.18
2016-04-17T05:33:14.124Z,24.24
2016-04-17T05:34:14.127Z,24.22
2016-04-17T05:35:14.130Z,24.2
2016-04-17T05:36:14.132Z,24.31
2016-04-17T05:37:14.150Z,24.21
2016-04-17T05:38:14.152Z,24.28
2016-04-17T05:39:14.155Z,24.32
2016-04-17T05:40:14.158Z,24.3
2016-04-17T05:41:14.161Z,24.3
2016-04-17T05:42:14.163Z,24.18
2016-04-17T05:43:14.166Z,24.22
2016-04-17T05:44:14.185Z,24.34
2016-04-17T05:45:14.188Z,24.25
2016-04-17T05:46:14.190Z,24.25
2016-04-17T05:47:14.209Z,24.27
2016-04-17T05:48:14.212Z,24.28
2016-04-17T05:49:14.214Z,24.31
2016-04-17T05:50:14.217Z,24.2
2016-04-17T05:51:14.235Z,24.2
2016-04-17T05:52:14.238Z,24.21
2016-04-17T05:53:14.256Z,24.31
2016-04-17T05:54:14.243Z,24.31
2016-04-17T05:55:14.292Z,24.31
2016-04-17T05:56:14.264Z,24.28
2016-04-17T05:57:14.282Z,24.3
2016-04-17T05:58:14.270Z,24.34
2016-04-17T05:59:14.272Z,24.35
2016-04-17T06:00:14.291Z,24.3
2016-04-17T06:01:14.277Z,24.32
2016-04-17T06:02:14.297Z,24.3
2016-04-17T06:03:14.336Z,24.31
2016-04-17T06:04:14.393Z,24.32
2016-04-17T06:05:14.421Z,24.37
2016-04-17T06:06:14.479Z,24.34
2016-04-17T06:07:14.521Z,24.35
2016-04-17T06:08:14.540Z,24.34
2016-04-17T06:09:14.573Z,24.31
2016-04-17T06:10:14.590Z,24.35
2016-04-17T06:11:14.607Z,24.3
2016-04-17T06:12:14.624Z,24.32
2016-04-17T06:13:14.647Z,24.34
2016-04-17T06:14:14.656Z,24.32
2016-04-17T06:15:14.649Z,24.35
2016-04-17T06:16:14.672Z,24.32
2016-04-17T06:17:14.680Z,24.3
2016-04-17T06:18:14.684Z,24.28
2016-04-17T06:19:14.705Z,24.3
2016-04-17T06:20:14.709Z,24.3
2016-04-17T06:21:14.762Z,24.32
2016-04-17T06:22:14.735Z,24.28
2016-04-17T06:23:14.722Z,24.28
2016-04-17T06:24:14.757Z,24.34
2016-04-17T06:25:14.745Z,24.31
2016-04-17T06:26:14.749Z,24.35
2016-04-17T06:27:14.768Z,24.34
2016-04-17T06:28:14.770Z,24.31
2016-04-17T06:29:14.773Z,24.31
2016-04-17T06:30:14.775Z,24.34
2016-04-17T06:31:14.778Z,24.35
2016-04-17T06:32:14.781Z,24.3
2016-04-17T06:33:14.799Z,24.28
2016-04-17T06:34:14.802Z,24.27
2016-04-17T06:35:14.805Z,24.24
2016-04-17T06:36:14.838Z,24.21
2016-04-17T06:37:14.826Z,24.28
2016-04-17T06:38:14.829Z,24.2
2016-04-17T06:39:14.831Z,24.2
2016-04-17T06:40:14.835Z,24.28
2016-04-17T06:41:14.852Z,24.21
2016-04-17T06:42:14.854Z,24.3
2016-04-17T06:43:14.858Z,24.21
2016-04-17T06:44:14.876Z,24.21
2016-04-17T06:45:14.863Z,24.28
2016-04-17T06:46:14.882Z,24.22
2016-04-17T06:47:14.899Z,24.21
2016-04-17T06:48:14.887Z,24.2
2016-04-17T06:49:14.905Z,24.25
2016-04-17T06:50:14.907Z,24.32
2016-04-17T06:51:14.910Z,24.28
2016-04-17T06:52:14.913Z,24.25
2016-04-17T06:53:14.915Z,24.24
2016-04-17T06:54:14.934Z,24.32
2016-04-17T06:55:14.936Z,24.42
2016-04-17T06:56:14.939Z,24.32
2016-04-17T06:57:14.943Z,24.35
2016-04-17T06:58:14.944Z,24.49
2016-04-17T06:59:14.964Z,24.42
2016-04-17T07:00:14.966Z,24.45
2016-04-17T07:01:16.172Z,24.45
2016-04-17T07:02:14.987Z,24.5
2016-04-17T07:03:14.989Z,24.52
2016-04-17T07:04:15.008Z,24.5
2016-04-17T07:05:14.995Z,24.55
2016-04-17T07:06:14.997Z,24.61
2016-04-17T07:07:15.000Z,24.61
2016-04-17T07:08:15.019Z,24.62
2016-04-17T07:09:15.021Z,24.58
2016-04-17T07:10:15.024Z,24.64
2016-04-17T07:11:15.026Z,24.76
2016-04-17T07:12:15.046Z,24.73
2016-04-17T07:13:15.048Z,24.68
2016-04-17T07:14:15.050Z,24.83
2016-04-17T07:15:15.053Z,24.87
2016-04-17T07:16:15.071Z,24.95
2016-04-17T07:17:15.073Z,24.91
2016-04-17T07:18:15.077Z,24.91
2016-04-17T07:19:15.095Z,25.02
2016-04-17T07:20:15.082Z,25.05
2016-04-17T07:21:15.084Z,25.09
2016-04-17T07:22:15.104Z,25.2
2016-04-17T07:23:15.106Z,25.24
2016-04-17T07:24:15.124Z,25.21
2016-04-17T07:25:15.111Z,25.27
2016-04-17T07:26:15.129Z,25.23
2016-04-17T07:27:15.132Z,25.23
2016-04-17T07:28:15.151Z,25.43
2016-04-17T07:29:15.153Z,25.39
2016-04-17T07:30:15.156Z,25.45
2016-04-17T07:31:15.158Z,25.43
2016-04-17T07:32:15.177Z,25.45
2016-04-17T07:33:15.180Z,25.55
2016-04-17T07:34:15.183Z,25.67
2016-04-17T07:35:15.200Z,25.72
2016-04-17T07:36:15.203Z,25.69
2016-04-17T07:37:15.206Z,25.76
2016-04-17T07:38:15.209Z,25.76
2016-04-17T07:39:15.211Z,25.79
2016-04-17T07:40:15.230Z,25.7
2016-04-17T07:41:15.232Z,25.72
2016-04-17T07:42:15.251Z,25.65
2016-04-17T07:43:15.238Z,25.73
2016-04-17T07:44:15.257Z,25.75
2016-04-17T07:45:15.259Z,25.83
2016-04-17T07:46:15.121Z,25.77
2016-04-17T07:47:15.295Z,25.73
2016-04-17T07:48:15.282Z,25.7
2016-04-17T07:49:15.285Z,25.77
2016-04-17T07:50:15.287Z,25.7
2016-04-17T07:51:15.290Z,25.57
2016-04-17T07:52:15.309Z,25.54
2016-04-17T07:53:15.327Z,25.47
2016-04-17T07:54:15.330Z,25.54
2016-04-17T07:55:15.317Z,25.51
2016-04-17T07:56:15.351Z,25.51
2016-04-17T07:57:15.337Z,25.5
2016-04-17T07:58:15.356Z,25.43
2016-04-17T07:59:15.358Z,25.27
2016-04-17T08:00:15.378Z,25.36
2016-04-17T08:01:15.380Z,25.39
2016-04-17T08:02:15.383Z,25.33
2016-04-17T08:03:15.400Z,25.47
2016-04-17T08:04:15.403Z,25.51
2016-04-17T08:05:15.406Z,25.61
2016-04-17T08:06:15.393Z,25.62
2016-04-17T08:07:15.411Z,25.51
2016-04-17T08:08:15.414Z,25.69
2016-04-17T08:09:15.433Z,25.65
2016-04-17T08:10:15.436Z,25.67
2016-04-17T08:11:15.454Z,25.61
2016-04-17T08:12:15.440Z,25.58
2016-04-17T08:13:15.459Z,25.57
2016-04-17T08:14:15.462Z,25.51
2016-04-17T08:15:15.465Z,25.36
2016-04-17T08:16:15.468Z,25.39
2016-04-17T08:17:15.470Z,25.2
2016-04-17T08:18:15.503Z,25.14
2016-04-17T08:19:15.490Z,25.13
2016-04-17T08:20:15.509Z,25.17
2016-04-17T08:21:15.511Z,25.09
2016-04-17T08:22:15.515Z,25.13
2016-04-17T08:23:15.517Z,25.06
2016-04-17T08:24:15.520Z,25.06
2016-04-17T08:25:15.553Z,25.03
2016-04-17T08:26:15.525Z,24.91
2016-04-17T08:27:15.543Z,24.95
2016-04-17T08:28:15.546Z,25
2016-04-17T08:29:15.565Z,25.08
2016-04-17T08:30:15.567Z,25.23
2016-04-17T08:31:15.570Z,25.23
2016-04-17T08:32:15.588Z,25.3
2016-04-17T08:33:15.591Z,25.38
2016-04-17T08:34:15.594Z,25.39
2016-04-17T08:35:15.596Z,25.42
2016-04-17T08:36:15.599Z,25.43
2016-04-17T08:37:15.602Z,25.52
2016-04-17T08:38:15.604Z,25.67
2016-04-17T08:39:15.622Z,25.67
2016-04-17T08:40:15.625Z,25.58
2016-04-17T08:41:15.644Z,25.75
2016-04-17T08:42:15.647Z,25.83
2016-04-17T08:43:15.650Z,25.82
2016-04-17T08:44:15.652Z,25.77
2016-04-17T08:45:15.654Z,25.88
2016-04-17T08:46:15.688Z,25.75
2016-04-17T08:47:15.676Z,25.5
2016-04-17T08:48:15.694Z,25.38
2016-04-17T08:49:15.696Z,25.18
2016-04-17T08:50:15.699Z,25.18
2016-04-17T08:51:15.718Z,25.05
2016-04-17T08:52:15.721Z,24.95
2016-04-17T08:53:15.723Z,24.87
2016-04-17T08:54:15.725Z,24.83
2016-04-17T08:55:15.728Z,24.81
2016-04-17T08:56:15.762Z,24.9
2016-04-17T08:57:15.734Z,24.8
2016-04-17T08:58:15.768Z,24.77
2016-04-17T08:59:15.754Z,24.76
2016-04-17T09:00:15.757Z,24.77
2016-04-17T09:01:29.885Z,24.76
2016-04-17T09:02:15.778Z,24.73
2016-04-17T09:03:15.781Z,24.71
2016-04-17T09:04:15.799Z,24.71
2016-04-17T09:05:15.802Z,24.78
2016-04-17T09:06:15.820Z,24.73
2016-04-17T09:07:15.808Z,24.84
2016-04-17T09:08:15.810Z,24.99
2016-04-17T09:09:15.813Z,25
2016-04-17T09:10:15.830Z,25.06
2016-04-17T09:11:15.834Z,25.06
2016-04-17T09:12:15.836Z,25.1
2016-04-17T09:13:15.855Z,25.06
2016-04-17T09:14:15.873Z,24.98
2016-04-17T09:15:15.861Z,24.96
2016-04-17T09:16:15.879Z,24.95
2016-04-17T09:17:15.882Z,24.84
2016-04-17T09:18:15.899Z,24.87
2016-04-17T09:19:15.887Z,24.87
2016-04-17T09:20:15.890Z,24.9
2016-04-17T09:21:15.892Z,24.87
2016-04-17T09:22:15.910Z,24.84
2016-04-17T09:23:15.912Z,24.83
2016-04-17T09:24:15.916Z,24.76
2016-04-17T09:25:15.918Z,24.67
2016-04-17T09:26:16.046Z,24.77
2016-04-17T09:27:15.940Z,24.76
2016-04-17T09:28:15.943Z,24.76
2016-04-17T09:29:15.945Z,24.58
2016-04-17T09:30:15.963Z,24.55
2016-04-17T09:31:17.872Z,24.6
2016-04-17T09:32:15.968Z,24.5
2016-04-17T09:33:15.987Z,24.46
2016-04-17T09:34:16.006Z,24.4
2016-04-17T09:35:16.008Z,24.34
2016-04-17T09:36:16.011Z,24.37
2016-04-17T09:37:16.014Z,24.37
2016-04-17T09:38:16.017Z,24.35
2016-04-17T09:39:16.034Z,24.27
2016-04-17T09:40:16.022Z,24.34
2016-04-17T09:41:16.072Z,24.3
2016-04-17T09:42:16.027Z,24.32
2016-04-17T09:43:16.060Z,24.52
2016-04-17T09:44:16.047Z,24.65
2016-04-17T09:45:16.050Z,24.76
2016-04-17T09:46:16.053Z,24.85
2016-04-17T09:47:16.071Z,24.85
2016-04-17T09:48:16.091Z,24.78
2016-04-17T09:49:16.093Z,24.62
2016-04-17T09:50:16.096Z,24.58
2016-04-17T09:51:16.099Z,24.58
2016-04-17T09:52:16.116Z,24.55
2016-04-17T09:53:16.104Z,24.52
2016-04-17T09:54:16.107Z,24.46
2016-04-17T09:55:15.984Z,24.34
2016-04-17T09:56:16.174Z,24.34
2016-04-17T09:57:16.130Z,24.37
2016-04-17T09:58:16.148Z,24.35
2016-04-17T09:59:16.150Z,24.37
2016-04-17T10:00:16.293Z,24.42
2016-04-17T10:01:16.171Z,24.53
2016-04-17T10:02:16.159Z,24.58
2016-04-17T10:03:16.177Z,24.61
2016-04-17T10:04:16.196Z,24.62
2016-04-17T10:05:16.198Z,24.64
2016-04-17T10:06:16.201Z,24.5
2016-04-17T10:07:16.204Z,24.52
2016-04-17T10:08:16.081Z,24.43
2016-04-17T10:09:16.208Z,24.47
2016-04-17T10:10:16.228Z,24.53
2016-04-17T10:11:16.230Z,24.49
2016-04-17T10:12:16.217Z,24.55
2016-04-17T10:13:16.235Z,24.53
2016-04-17T10:14:16.238Z,24.6
2016-04-17T10:15:16.255Z,24.65
2016-04-17T10:16:16.259Z,24.53
2016-04-17T10:17:16.261Z,24.53
2016-04-17T10:18:16.264Z,24.49
2016-04-17T10:19:16.267Z,24.49
2016-04-17T10:20:16.285Z,24.53
2016-04-17T10:21:16.288Z,24.46
2016-04-17T10:22:16.306Z,24.4
2016-04-17T10:23:16.293Z,24.35
2016-04-17T10:24:16.312Z,24.4
2016-04-17T10:25:16.314Z,24.42
2016-04-17T10:26:16.317Z,24.32
2016-04-17T10:27:16.320Z,24.3
2016-04-17T10:28:16.182Z,24.21
2016-04-17T10:29:16.341Z,24.25
2016-04-17T10:30:16.343Z,24.22
2016-04-17T10:31:16.362Z,24.28
2016-04-17T10:32:16.379Z,24.28
2016-04-17T10:33:16.367Z,24.31
2016-04-17T10:34:16.370Z,24.31
2016-04-17T10:35:16.372Z,24.24
2016-04-17T10:36:16.390Z,24.31
2016-04-17T10:37:16.440Z,24.37
2016-04-17T10:38:16.396Z,24.39
2016-04-17T10:39:16.399Z,24.5
2016-04-17T10:40:16.417Z,24.53
2016-04-17T10:41:16.420Z,24.52
2016-04-17T10:42:16.422Z,24.6
2016-04-17T10:43:16.425Z,24.55
2016-04-17T10:44:16.444Z,24.52
2016-04-17T10:45:16.446Z,24.5
2016-04-17T10:46:16.293Z,24.42
2016-04-17T10:47:16.466Z,24.49
2016-04-17T10:48:16.455Z,23.42
2016-04-17T10:49:16.489Z,20.29
2016-04-17T10:50:16.475Z,18.03
2016-04-17T10:51:16.478Z,17.26
2016-04-17T10:52:16.481Z,18.7
2016-04-17T10:53:16.483Z,18.85
2016-04-17T10:54:16.486Z,18.91
2016-04-17T10:55:16.473Z,19
2016-04-17T10:56:16.476Z,17.48
2016-04-17T10:57:16.493Z,16.75
2016-04-17T10:58:16.481Z,17.66
2016-04-17T10:59:16.485Z,18.98
2016-04-17T11:00:16.487Z,18.92
2016-04-17T11:01:16.490Z,20.54
2016-04-17T11:02:16.492Z,19.59
2016-04-17T11:03:16.479Z,19.21
2016-04-17T11:04:16.498Z,20.67
2016-04-17T11:05:16.484Z,20.66
2016-04-17T11:06:16.487Z,20.84
2016-04-17T11:07:16.489Z,21.77
2016-04-17T11:08:16.492Z,21.83
2016-04-17T11:09:16.495Z,22.33
2016-04-17T11:10:16.497Z,21.84
2016-04-17T11:11:16.516Z,19.94
2016-04-17T11:12:16.503Z,20.73
2016-04-17T11:13:16.506Z,20.61
2016-04-17T11:14:16.525Z,20.87
2016-04-17T11:15:16.511Z,20.82
2016-04-17T11:16:16.530Z,21.68
2016-04-17T11:17:16.517Z,22.31
2016-04-17T11:18:16.519Z,18.18
2016-04-17T11:19:16.538Z,18.87
2016-04-17T11:20:16.541Z,20.21
2016-04-17T11:21:16.544Z,18.1
2016-04-17T11:22:16.530Z,18.2
2016-04-17T11:23:16.548Z,17.68
2016-04-17T11:24:16.535Z,18.51
2016-04-17T11:25:16.538Z,18.84
2016-04-17T11:26:16.557Z,19.18
2016-04-17T11:27:16.543Z,18.66
2016-04-17T11:28:16.546Z,19.26
2016-04-17T11:29:16.533Z,18.87
2016-04-17T11:30:16.535Z,19.04
2016-04-17T11:31:16.538Z,18.98
2016-04-17T11:32:16.541Z,19.86
2016-04-17T11:33:16.543Z,17.08
2016-04-17T11:34:16.547Z,18.17
2016-04-17T11:35:16.549Z,16.94
2016-04-17T11:36:16.536Z,15.96
2016-04-17T11:37:16.570Z,17.54
2016-04-17T11:38:16.542Z,16.38
2016-04-17T11:39:16.545Z,16.83
2016-04-17T11:40:16.547Z,18.17
2016-04-17T11:41:16.534Z,19.02
2016-04-17T11:42:16.537Z,19.48
2016-04-17T11:43:16.540Z,18.6
2016-04-17T11:44:16.543Z,19.28
2016-04-17T11:45:16.545Z,20.42
2016-04-17T11:46:16.548Z,20.58
2016-04-17T11:47:16.551Z,20.74
2016-04-17T11:48:16.538Z,20.88
2016-04-17T11:49:16.541Z,20.11
2016-04-17T11:50:16.543Z,17.95
2016-04-17T11:51:16.561Z,18.18
2016-04-17T11:52:16.579Z,18.27
2016-04-17T11:53:16.551Z,17.99
2016-04-17T11:54:16.554Z,18.27
2016-04-17T11:55:16.557Z,17.44
2016-04-17T11:56:16.559Z,17.58
2016-04-17T11:57:16.562Z,17.07
2016-04-17T11:58:16.549Z,17.11
2016-04-17T11:59:16.552Z,16.81
2016-04-17T12:00:16.571Z,18.3
2016-04-17T12:01:16.557Z,19.58
2016-04-17T12:02:16.560Z,20.61
2016-04-17T12:03:16.563Z,21.4
2016-04-17T12:04:16.549Z,21.47
2016-04-17T12:05:16.568Z,21.01
2016-04-17T12:06:16.571Z,21.35
2016-04-17T12:07:16.573Z,21.4
2016-04-17T12:08:16.576Z,21.32
2016-04-17T12:09:16.578Z,21.82
2016-04-17T12:10:16.581Z,21.96
2016-04-17T12:11:16.600Z,21.83
2016-04-17T12:12:16.603Z,20.73
2016-04-17T12:13:16.589Z,21.14
2016-04-17T12:14:16.592Z,17.86
2016-04-17T12:15:16.594Z,17.62
2016-04-17T12:16:16.613Z,17.01
2016-04-17T12:17:16.584Z,16.66
2016-04-17T12:18:16.586Z,17.49
2016-04-17T12:19:16.605Z,19.44
2016-04-17T12:20:16.608Z,19.76
2016-04-17T12:21:16.595Z,19.32
2016-04-17T12:22:16.597Z,20.24
2016-04-17T12:23:16.600Z,20.39
2016-04-17T12:24:16.602Z,17.9
2016-04-17T12:25:16.606Z,19.46
2016-04-17T12:26:16.609Z,20.31
2016-04-17T12:27:16.611Z,21.12
2016-04-17T12:28:16.599Z,20.06
2016-04-17T12:29:16.616Z,20.05
2016-04-17T12:30:16.619Z,18.99
2016-04-17T12:31:16.622Z,17.71
2016-04-17T12:32:16.610Z,17.62
2016-04-17T12:33:16.612Z,19.07
2016-04-17T12:34:16.615Z,19.51
2016-04-17T12:35:16.618Z,18.78
2016-04-17T12:36:17.338Z,16.88
2016-04-17T12:37:16.607Z,18.25
2016-04-17T12:38:16.610Z,19.8
2016-04-17T12:39:16.612Z,20.8
2016-04-17T12:40:16.615Z,20.5
2016-04-17T12:41:16.618Z,20.7
2016-04-17T12:42:16.620Z,19.99
2016-04-17T12:43:16.638Z,19.32
2016-04-17T12:44:16.625Z,20.39
2016-04-17T12:45:16.628Z,21.1
2016-04-17T12:46:16.631Z,20.62
2016-04-17T12:47:16.665Z,21.19
2016-04-17T12:48:16.636Z,19.54
2016-04-17T12:49:16.639Z,20.61
2016-04-17T12:50:16.641Z,20.87
2016-04-17T12:51:16.644Z,19.44
2016-04-17T12:52:16.647Z,19.43
2016-04-17T12:53:18.305Z,20.42
2016-04-17T12:54:16.652Z,19.5
2016-04-17T12:55:16.655Z,20.66
2016-04-17T12:56:16.673Z,21.27